createdAt,value
2019-02-23T08:41:45.550Z,24.00
2019-02-23T08:42:44.890Z,19.60
2019-02-23T08:43:44.859Z,15.30
2019-02-23T08:44:44.826Z,15.60
2019-02-23T08:45:44.795Z,16.70
2019-02-23T08:46:44.764Z,16.50
2019-02-23T08:47:45.091Z,15.60
2019-02-23T08:48:44.721Z,16.40
2019-02-23T08:49:44.668Z,16.50
2019-02-23T08:50:44.635Z,15.60
2019-02-23T08:51:44.603Z,15.90
2019-02-23T08:52:49.226Z,15.50
2019-02-23T08:53:44.541Z,17.80
2019-02-23T08:54:44.511Z,16.00
2019-02-23T08:55:44.491Z,15.30
2019-02-23T08:56:44.660Z,16.50
2019-02-23T08:57:44.418Z,16.30
2019-02-23T08:58:44.386Z,16.10
2019-02-23T08:59:44.361Z,15.60
2019-02-23T09:00:44.327Z,15.30
2019-02-23T09:01:44.297Z,16.30
2019-02-23T09:02:44.265Z,15.90
2019-02-23T09:03:44.236Z,16.40
2019-02-23T09:04:44.202Z,15.70
2019-02-23T09:05:44.179Z,16.70
2019-02-23T09:06:44.147Z,16.70
2019-02-23T09:07:44.118Z,17.40
2019-02-23T09:08:44.215Z,16.90
2019-02-23T09:09:44.060Z,16.20
2019-02-23T09:10:44.027Z,29.10
2019-02-23T09:11:43.997Z,19.90
2019-02-23T09:12:43.970Z,31.80
2019-02-23T09:13:43.940Z,24.40
2019-02-23T09:14:43.911Z,26.40
2019-02-23T09:15:43.880Z,23.10
2019-02-23T09:16:43.850Z,22.30
2019-02-23T09:17:43.822Z,23.90
2019-02-23T09:18:43.789Z,23.50
2019-02-23T09:19:43.761Z,22.90
2019-02-23T09:20:43.729Z,24.80
2019-02-23T09:21:43.702Z,25.20
2019-02-23T09:22:43.674Z,24.60
2019-02-23T09:23:43.643Z,20.30
2019-02-23T09:24:43.615Z,20.80
2019-02-23T09:25:43.589Z,20.10
2019-02-23T09:26:43.559Z,19.80
2019-02-23T09:27:43.528Z,20.90
2019-02-23T09:28:43.503Z,26.30
2019-02-23T09:29:43.471Z,27.40
2019-02-23T09:30:43.444Z,32.10
2019-02-23T09:31:43.417Z,29.10
2019-02-23T09:32:43.386Z,40.20
2019-02-23T09:33:43.359Z,31.30
2019-02-23T09:34:43.327Z,41.10
2019-02-23T09:35:43.301Z,28.00
2019-02-23T09:36:43.272Z,35.90
2019-02-23T09:37:43.243Z,32.00
2019-02-23T09:38:43.216Z,34.10
2019-02-23T09:39:43.191Z,29.50
2019-02-23T09:40:43.159Z,28.30
2019-02-23T09:41:43.134Z,28.00
2019-02-23T09:42:43.104Z,26.10
2019-02-23T09:43:43.074Z,26.30
2019-02-23T09:44:43.051Z,23.10
2019-02-23T09:45:43.022Z,23.50
2019-02-23T09:46:42.939Z,24.70
2019-02-23T09:47:42.913Z,25.30
2019-02-23T09:48:42.885Z,25.20
2019-02-23T09:49:42.860Z,19.80
2019-02-23T09:50:42.836Z,23.00
2019-02-23T09:51:42.804Z,21.20
2019-02-23T09:52:42.778Z,20.10
2019-02-23T09:53:42.754Z,21.20
2019-02-23T09:54:42.727Z,21.60
2019-02-23T09:55:42.700Z,23.30
2019-02-23T09:56:42.673Z,19.90
2019-02-23T09:57:42.649Z,21.90
2019-02-23T09:58:42.621Z,21.20
2019-02-23T09:59:42.594Z,19.70
2019-02-23T10:00:42.569Z,19.40
2019-02-23T10:01:42.543Z,18.60
2019-02-23T10:02:42.517Z,19.50
2019-02-23T10:03:42.489Z,18.80
2019-02-23T10:04:42.466Z,19.40
2019-02-23T10:05:42.440Z,24.10
2019-02-23T10:06:42.421Z,28.80
2019-02-23T10:07:42.386Z,24.60
2019-02-23T10:08:42.360Z,26.40
2019-02-23T10:09:42.333Z,25.50
2019-02-23T10:10:42.314Z,23.50
2019-02-23T10:11:42.288Z,23.60
2019-02-23T10:12:42.258Z,26.60
2019-02-23T10:13:42.231Z,22.30
2019-02-23T10:14:42.206Z,21.80
2019-02-23T10:15:42.177Z,25.00
2019-02-23T10:16:42.156Z,22.30
2019-02-23T10:17:42.130Z,19.70
2019-02-23T10:18:42.104Z,21.50
2019-02-23T10:19:42.076Z,22.00
2019-02-23T10:20:42.052Z,21.20
2019-02-23T10:21:42.028Z,21.70
2019-02-23T10:22:42.059Z,20.20
2019-02-23T10:23:42.032Z,20.20
2019-02-23T10:24:42.008Z,20.00
2019-02-23T10:25:41.928Z,20.30
2019-02-23T10:26:41.900Z,20.40
2019-02-23T10:27:41.929Z,20.30
2019-02-23T10:28:41.853Z,20.40
2019-02-23T10:29:41.882Z,18.70
2019-02-23T10:30:41.856Z,18.80
2019-02-23T10:31:41.776Z,20.90
2019-02-23T10:32:41.806Z,20.60
2019-02-23T10:33:47.570Z,18.40
2019-02-23T10:34:41.754Z,20.00
2019-02-23T10:35:41.731Z,19.80
2019-02-23T10:36:41.705Z,19.60
2019-02-23T10:37:41.681Z,20.40
2019-02-23T10:38:41.657Z,19.00
2019-02-23T10:39:41.630Z,17.70
2019-02-23T10:40:41.608Z,18.30
2019-02-23T10:41:41.583Z,18.60
